Time,TemperatureF,DewpointF,PressureIn,WindDirection,WindDirectionDegrees,WindSpeedMPH,WindSpeedGustMPH,Humidity,HourlyPrecipIn,Conditions,Clouds,dailyrainin,SoftwareType,DateUTC
2013-02-01 00:01:00,28.2,14.1,29.82,North,0,0.0,0.0,55,0.00,,,0.00,Wunderground v.1.15,2013-02-01 05:01:00,
2013-02-01 00:06:00,28.1,14.4,29.82,North,0,0.0,0.0,56,0.00,,,0.00,Wunderground v.1.15,2013-02-01 05:06:00,
2013-02-01 00:08:00,28.1,14.4,29.82,North,0,0.0,0.0,56,0.00,,,0.00,Wunderground v.1.15,2013-02-01 05:08:00,
2013-02-01 00:10:00,27.9,14.2,29.82,North,0,0.0,0.0,56,0.00,,,0.00,Wunderground v.1.15,2013-02-01 05:10:00,
2013-02-01 00:16:00,27.8,14.1,29.81,North,0,0.0,0.0,56,0.00,,,0.00,Wunderground v.1.15,2013-02-01 05:16:00,
2013-02-01 00:21:00,27.5,13.8,29.81,North,0,0.0,0.0,56,0.00,,,0.00,Wunderground v.1.15,2013-02-01 05:21:00,
2013-02-01 00:27:00,27.0,13.4,29.81,North,0,0.0,0.0,56,0.00,,,0.00,Wunderground v.1.15,2013-02-01 05:27:00,
2013-02-01 00:39:00,26.4,14.0,29.80,North,0,0.0,0.0,59,0.00,,,0.00,Wunderground v.1.15,2013-02-01 05:39:00,
2013-02-01 00:45:00,26.1,14.1,29.81,North,0,0.0,0.0,60,0.00,,,0.00,Wunderground v.1.15,2013-02-01 05:45:00,
2013-02-01 00:51:00,26.0,14.0,29.81,North,0,0.0,0.0,60,0.00,,,0.00,Wunderground v.1.15,2013-02-01 05:51:00,
2013-02-01 00:57:00,25.7,14.1,29.81,North,0,0.0,0.0,61,0.00,,,0.00,Wunderground v.1.15,2013-02-01 05:57:00,
2013-02-01 01:04:00,25.6,14.7,29.81,North,0,0.0,0.0,63,0.00,,,0.00,Wunderground v.1.15,2013-02-01 06:04:00,
2013-02-01 01:09:00,25.4,14.9,29.81,North,0,0.0,0.0,64,0.00,,,0.00,Wunderground v.1.15,2013-02-01 06:09:00,
2013-02-01 01:14:00,25.3,14.8,29.81,North,0,0.0,0.0,64,0.00,,,0.00,Wunderground v.1.15,2013-02-01 06:14:00,
2013-02-01 01:20:00,25.0,15.2,29.81,North,0,0.0,0.0,66,0.00,,,0.00,Wunderground v.1.15,2013-02-01 06:20:00,
2013-02-01 01:25:00,24.8,15.0,29.81,North,0,0.0,0.0,66,0.00,,,0.00,Wunderground v.1.15,2013-02-01 06:25:00,
2013-02-01 01:31:00,24.7,14.9,29.81,North,0,0.0,0.0,66,0.00,,,0.00,Wunderground v.1.15,2013-02-01 06:31:00,
2013-02-01 01:38:00,24.5,14.8,29.81,North,0,0.0,0.0,66,0.00,,,0.00,Wunderground v.1.15,2013-02-01 06:38:00,
2013-02-01 01:45:00,24.5,15.4,29.81,North,0,0.0,0.0,68,0.00,,,0.00,Wunderground v.1.15,2013-02-01 06:45:00,
2013-02-01 01:50:00,24.5,15.8,29.81,North,0,0.0,0.0,69,0.00,,,0.00,Wunderground v.1.15,2013-02-01 06:50:00,
2013-02-01 01:57:00,24.5,15.8,29.81,North,0,0.0,0.0,69,0.00,,,0.00,Wunderground v.1.15,2013-02-01 06:57:00,
2013-02-01 02:05:00,24.5,15.8,29.81,North,0,0.0,0.0,69,0.00,,,0.00,Wunderground v.1.15,2013-02-01 07:05:00,
2013-02-01 02:10:00,24.7,16.0,29.81,North,0,0.0,0.0,69,0.00,,,0.00,Wunderground v.1.15,2013-02-01 07:10:00,
2013-02-01 02:16:00,25.1,15.7,29.80,NW,322,0.0,3.0,67,0.00,,,0.00,Wunderground v.1.15,2013-02-01 07:16:00,
2013-02-01 02:22:00,25.8,14.9,29.80,NNE,28,0.0,2.0,63,0.00,,,0.00,Wunderground v.1.15,2013-02-01 07:22:00,
2013-02-01 02:28:00,26.7,15.0,29.80,NNE,30,0.0,2.0,61,0.00,,,0.00,Wunderground v.1.15,2013-02-01 07:28:00,
2013-02-01 02:36:00,27.3,16.0,29.80,NNE,30,0.0,0.0,62,0.00,,,0.00,Wunderground v.1.15,2013-02-01 07:36:00,
2013-02-01 02:42:00,27.6,16.6,29.80,NNE,30,0.0,0.0,63,0.00,,,0.00,Wunderground v.1.15,2013-02-01 07:42:00,
2013-02-01 02:48:00,27.6,17.4,29.79,NNE,30,0.0,0.0,65,0.00,,,0.00,Wunderground v.1.15,2013-02-01 07:48:00,
2013-02-01 02:57:00,27.8,17.6,29.79,NNE,30,0.0,0.0,65,0.00,,,0.00,Wunderground v.1.15,2013-02-01 07:57:00,
2013-02-01 03:02:00,27.8,17.2,29.78,NNE,30,0.0,0.0,64,0.00,,,0.00,Wunderground v.1.15,2013-02-01 08:02:00,
2013-02-01 03:07:00,27.9,16.6,29.78,NNE,30,0.0,0.0,62,0.00,,,0.00,Wunderground v.1.15,2013-02-01 08:07:00,
2013-02-01 03:14:00,27.9,16.9,29.78,NNE,30,0.0,0.0,63,0.00,,,0.00,Wunderground v.1.15,2013-02-01 08:14:00,
2013-02-01 03:20:00,28.1,16.7,29.78,NNE,30,0.0,0.0,62,0.00,,,0.00,Wunderground v.1.15,2013-02-01 08:20:00,
2013-02-01 03:27:00,28.2,16.8,29.78,NNE,30,0.0,0.0,62,0.00,,,0.00,Wunderground v.1.15,2013-02-01 08:27:00,
2013-02-01 03:34:00,28.2,17.2,29.77,NNE,30,0.0,0.0,63,0.00,,,0.00,Wunderground v.1.15,2013-02-01 08:34:00,
2013-02-01 03:39:00,28.2,17.2,29.77,NNE,30,0.0,0.0,63,0.00,,,0.00,Wunderground v.1.15,2013-02-01 08:39:00,
2013-02-01 03:46:00,28.2,17.9,29.77,NNE,30,0.0,0.0,65,0.00,,,0.00,Wunderground v.1.15,2013-02-01 08:46:00,
2013-02-01 03:52:00,28.2,18.3,29.77,NNE,31,0.0,0.0,66,0.00,,,0.00,Wunderground v.1.15,2013-02-01 08:52:00,
2013-02-01 03:57:00,28.1,17.8,29.77,NNE,30,0.0,0.0,65,0.00,,,0.00,Wunderground v.1.15,2013-02-01 08:57:00,
2013-02-01 04:02:00,28.1,17.8,29.77,NNE,30,0.0,0.0,65,0.00,,,0.00,Wunderground v.1.15,2013-02-01 09:02:00,
2013-02-01 04:07:00,28.1,17.5,29.77,NNE,30,0.0,0.0,64,0.00,,,0.00,Wunderground v.1.15,2013-02-01 09:07:00,
2013-02-01 04:17:00,28.2,17.6,29.78,NNE,31,0.0,1.0,64,0.00,,,0.00,Wunderground v.1.15,2013-02-01 09:17:00,
2013-02-01 04:27:00,28.4,18.5,29.78,East,83,1.0,1.0,66,0.00,,,0.00,Wunderground v.1.15,2013-02-01 09:27:00,
2013-02-01 04:34:00,28.7,19.1,29.78,ENE,59,1.0,2.0,67,0.00,,,0.00,Wunderground v.1.15,2013-02-01 09:34:00,
2013-02-01 04:40:00,28.7,19.8,29.78,East,82,1.0,2.0,69,0.00,,,0.00,Wunderground v.1.15,2013-02-01 09:40:00,
2013-02-01 04:46:00,28.5,20.9,29.79,ESE,103,1.0,2.0,73,0.00,,,0.00,Wunderground v.1.15,2013-02-01 09:46:00,
2013-02-01 04:51:00,28.2,21.3,29.79,SE,126,2.0,2.0,75,0.00,,,0.00,Wunderground v.1.15,2013-02-01 09:51:00,
2013-02-01 04:57:00,27.9,21.6,29.79,ENE,61,3.0,6.0,77,0.00,,,0.00,Wunderground v.1.15,2013-02-01 09:57:00,
2013-02-01 05:06:00,27.3,22.2,29.81,ENE,64,3.0,5.0,81,0.00,,,0.00,Wunderground v.1.15,2013-02-01 10:06:00,
2013-02-01 05:11:00,27.0,22.2,29.81,ESE,107,3.0,6.0,82,0.00,,,0.00,Wunderground v.1.15,2013-02-01 10:11:00,
2013-02-01 05:17:00,26.7,22.5,29.82,NE,45,4.0,6.0,84,0.00,,,0.00,Wunderground v.1.15,2013-02-01 10:17:00,
2013-02-01 05:22:00,26.6,22.4,29.82,East,80,3.0,3.0,84,0.00,,,0.00,Wunderground v.1.15,2013-02-01 10:22:00,
2013-02-01 05:27:00,26.4,22.5,29.82,NE,56,3.0,4.0,85,0.00,,,0.00,Wunderground v.1.15,2013-02-01 10:27:00,
2013-02-01 05:36:00,25.8,21.6,29.84,ENE,72,5.0,9.0,84,0.00,,,0.00,Wunderground v.1.15,2013-02-01 10:36:00,
2013-02-01 05:41:00,25.4,21.2,29.84,NE,55,6.0,13.0,84,0.00,,,0.00,Wunderground v.1.15,2013-02-01 10:41:00,
2013-02-01 05:46:00,25.1,20.7,29.85,East,93,6.0,13.0,83,0.00,,,0.00,Wunderground v.1.15,2013-02-01 10:46:00,
2013-02-01 05:52:00,25.0,20.6,29.85,ESE,107,5.0,6.0,83,0.00,,,0.00,Wunderground v.1.15,2013-02-01 10:52:00,
2013-02-01 05:57:00,24.8,20.1,29.85,NE,45,4.0,6.0,82,0.00,,,0.00,Wunderground v.1.15,2013-02-01 10:57:00,
2013-02-01 06:04:00,24.7,20.0,29.85,East,89,3.0,4.0,82,0.00,,,0.00,Wunderground v.1.15,2013-02-01 11:04:00,
2013-02-01 06:10:00,24.7,19.7,29.85,ENE,73,2.0,2.0,81,0.00,,,0.00,Wunderground v.1.15,2013-02-01 11:10:00,
2013-02-01 06:16:00,24.7,19.7,29.85,East,92,3.0,5.0,81,0.00,,,0.00,Wunderground v.1.15,2013-02-01 11:16:00,
2013-02-01 06:21:00,24.7,19.4,29.85,ESE,102,3.0,4.0,80,0.00,,,0.00,Wunderground v.1.15,2013-02-01 11:21:00,
2013-02-01 06:27:00,24.7,19.1,29.85,ENE,59,3.0,5.0,79,0.00,,,0.00,Wunderground v.1.15,2013-02-01 11:27:00,
2013-02-01 06:32:00,24.7,18.8,29.86,ENE,76,3.0,3.0,78,0.00,,,0.00,Wunderground v.1.15,2013-02-01 11:32:00,
2013-02-01 06:37:00,24.7,18.5,29.86,ENE,73,4.0,4.0,77,0.00,,,0.00,Wunderground v.1.15,2013-02-01 11:37:00,
2013-02-01 06:46:00,24.8,18.0,29.87,ENE,65,4.0,5.0,75,0.00,,,0.00,Wunderground v.1.15,2013-02-01 11:46:00,
2013-02-01 06:51:00,24.8,17.7,29.87,East,79,3.0,5.0,74,0.00,,,0.00,Wunderground v.1.15,2013-02-01 11:51:00,
2013-02-01 06:57:00,24.8,17.4,29.87,ESE,102,3.0,5.0,73,0.00,,,0.00,Wunderground v.1.15,2013-02-01 11:57:00,
2013-02-01 07:06:00,24.8,16.7,29.87,ENE,65,3.0,7.0,71,0.00,,,0.00,Wunderground v.1.15,2013-02-01 12:06:00,
2013-02-01 07:11:00,25.0,16.3,29.87,East,95,4.0,9.0,69,0.00,,,0.00,Wunderground v.1.15,2013-02-01 12:11:00,
2013-02-01 07:19:00,24.8,15.7,29.90,WNW,296,7.0,9.0,68,0.00,,,0.00,Wunderground v.1.15,2013-02-01 12:19:00,
2013-02-01 07:27:00,24.2,15.5,29.90,East,83,8.0,13.0,69,0.00,,,0.00,Wunderground v.1.15,2013-02-01 12:27:00,
2013-02-01 07:34:00,23.9,14.9,29.91,NE,38,6.0,9.0,68,0.00,,,0.00,Wunderground v.1.15,2013-02-01 12:34:00,
2013-02-01 07:40:00,23.5,13.8,29.91,ESE,104,6.0,6.0,66,0.00,,,0.00,Wunderground v.1.15,2013-02-01 12:40:00,
2013-02-01 07:46:00,23.3,12.6,29.92,North,352,7.0,8.0,63,0.00,,,0.00,Wunderground v.1.15,2013-02-01 12:46:00,
2013-02-01 07:52:00,23.2,12.1,29.92,NNE,28,7.0,11.0,62,0.00,,,0.00,Wunderground v.1.15,2013-02-01 12:52:00,
2013-02-01 07:58:00,23.2,11.4,29.92,ENE,68,7.0,11.0,60,0.00,,,0.00,Wunderground v.1.15,2013-02-01 12:58:00,
2013-02-01 08:06:00,23.2,10.2,29.95,NE,47,6.0,10.0,57,0.00,,,0.00,Wunderground v.1.15,2013-02-01 13:06:00,
2013-02-01 08:11:00,23.2,9.8,29.95,SE,137,6.0,6.0,56,0.00,,,0.00,Wunderground v.1.15,2013-02-01 13:11:00,
2013-02-01 08:17:00,23.2,8.6,29.97,ENE,65,7.0,8.0,53,0.00,,,0.00,Wunderground v.1.15,2013-02-01 13:17:00,
2013-02-01 08:24:00,23.2,8.2,29.97,NE,51,8.0,8.0,52,0.00,,,0.00,Wunderground v.1.15,2013-02-01 13:24:00,
2013-02-01 08:30:00,22.9,7.4,29.99,NE,54,9.0,9.0,51,0.00,,,0.00,Wunderground v.1.15,2013-02-01 13:30:00,
2013-02-01 08:37:00,22.2,6.4,29.99,ENE,72,6.0,9.0,50,0.00,,,0.00,Wunderground v.1.15,2013-02-01 13:37:00,
2013-02-01 08:44:00,22.2,6.8,29.99,NE,48,7.0,10.0,51,0.00,,,0.00,Wunderground v.1.15,2013-02-01 13:44:00,
2013-02-01 08:50:00,22.2,6.4,30.00,SE,137,5.0,5.0,50,0.00,,,0.00,Wunderground v.1.15,2013-02-01 13:50:00,
2013-02-01 08:57:00,22.4,6.1,30.00,ENE,69,5.0,8.0,49,0.00,,,0.00,Wunderground v.1.15,2013-02-01 13:57:00,
2013-02-01 09:06:00,22.4,6.1,30.01,ENE,69,6.0,10.0,49,0.00,,,0.00,Wunderground v.1.15,2013-02-01 14:06:00,
2013-02-01 09:12:00,22.4,6.5,30.01,ENE,78,7.0,11.0,50,0.00,,,0.00,Wunderground v.1.15,2013-02-01 14:12:00,
2013-02-01 09:18:00,22.2,5.9,30.02,ENE,71,7.0,11.0,49,0.00,,,0.00,Wunderground v.1.15,2013-02-01 14:18:00,
2013-02-01 09:25:00,22.4,7.0,30.02,ENE,69,7.0,11.0,51,0.00,,,0.00,Wunderground v.1.15,2013-02-01 14:25:00,
2013-02-01 09:30:00,22.5,6.6,30.03,East,80,6.0,8.0,50,0.00,,,0.00,Wunderground v.1.15,2013-02-01 14:30:00,
2013-02-01 09:37:00,22.4,5.6,30.03,East,80,8.0,12.0,48,0.00,,,0.00,Wunderground v.1.15,2013-02-01 14:37:00,
2013-02-01 09:45:00,22.4,5.2,30.03,ENE,75,8.0,10.0,47,0.00,,,0.00,Wunderground v.1.15,2013-02-01 14:45:00,
2013-02-01 09:50:00,22.4,5.6,30.03,ENE,69,8.0,8.0,48,0.00,,,0.00,Wunderground v.1.15,2013-02-01 14:50:00,
2013-02-01 09:56:00,22.4,6.1,30.03,NE,34,9.0,13.0,49,0.00,,,0.00,Wunderground v.1.15,2013-02-01 14:56:00,
2013-02-01 10:02:00,22.4,6.5,30.04,ENE,78,10.0,11.0,50,0.00,,,0.00,Wunderground v.1.15,2013-02-01 15:02:00,
2013-02-01 10:07:00,22.5,6.2,30.04,NNE,28,10.0,12.0,49,0.00,,,0.00,Wunderground v.1.15,2013-02-01 15:07:00,
2013-02-01 10:12:00,22.9,7.0,30.04,North,0,8.0,11.0,50,0.00,,,0.00,Wunderground v.1.15,2013-02-01 15:12:00,
2013-02-01 10:17:00,23.0,6.7,30.04,ENE,65,8.0,11.0,49,0.00,,,0.00,Wunderground v.1.15,2013-02-01 15:17:00,
2013-02-01 10:22:00,23.0,6.2,30.04,NE,47,9.0,12.0,48,0.00,,,0.00,Wunderground v.1.15,2013-02-01 15:22:00,
2013-02-01 10:27:00,23.2,7.3,30.04,NNE,27,8.0,12.0,50,0.00,,,0.00,Wunderground v.1.15,2013-02-01 15:27:00,
2013-02-01 10:32:00,23.0,5.3,30.05,ENE,73,8.0,12.0,46,0.00,,,0.00,Wunderground v.1.15,2013-02-01 15:32:00,
2013-02-01 10:37:00,23.0,6.2,30.05,NE,35,9.0,12.0,48,0.00,,,0.00,Wunderground v.1.15,2013-02-01 15:37:00,
2013-02-01 10:42:00,23.0,4.8,30.05,NE,38,10.0,13.0,45,0.00,,,0.00,Wunderground v.1.15,2013-02-01 15:42:00,
2013-02-01 10:48:00,23.0,5.7,30.06,East,80,9.0,13.0,47,0.00,,,0.00,Wunderground v.1.15,2013-02-01 15:48:00,
2013-02-01 10:55:00,23.2,6.4,30.06,NNE,18,9.0,12.0,48,0.00,,,0.00,Wunderground v.1.15,2013-02-01 15:55:00,
2013-02-01 11:00:00,23.2,5.9,30.07,SE,131,10.0,17.0,47,0.00,,,0.00,Wunderground v.1.15,2013-02-01 16:00:00,
2013-02-01 11:07:00,23.6,5.8,30.07,ENE,72,9.0,17.0,46,0.00,,,0.00,Wunderground v.1.15,2013-02-01 16:07:00,
2013-02-01 11:14:00,24.1,9.0,30.08,ENE,69,8.0,11.0,52,0.00,,,0.00,Wunderground v.1.15,2013-02-01 16:14:00,
2013-02-01 11:20:00,23.9,7.5,30.08,NNE,16,8.0,8.0,49,0.00,,,0.00,Wunderground v.1.15,2013-02-01 16:20:00,
2013-02-01 11:25:00,23.8,7.8,30.08,ENE,62,9.0,11.0,50,0.00,,,0.00,Wunderground v.1.15,2013-02-01 16:25:00,
2013-02-01 11:31:00,23.8,8.3,30.09,North,357,9.0,9.0,51,0.00,,,0.00,Wunderground v.1.15,2013-02-01 16:31:00,
2013-02-01 11:36:00,23.8,7.4,30.09,NE,51,8.0,13.0,49,0.00,,,0.00,Wunderground v.1.15,2013-02-01 16:36:00,
2013-02-01 11:41:00,23.9,7.5,30.09,NNW,330,8.0,12.0,49,0.00,,,0.00,Wunderground v.1.15,2013-02-01 16:41:00,
2013-02-01 11:46:00,23.9,7.0,30.10,East,90,8.0,12.0,48,0.00,,,0.00,Wunderground v.1.15,2013-02-01 16:46:00,
2013-02-01 11:52:00,23.9,6.6,30.10,ENE,68,7.0,10.0,47,0.00,,,0.00,Wunderground v.1.15,2013-02-01 16:52:00,
2013-02-01 11:57:00,24.1,8.1,30.10,East,86,7.0,10.0,50,0.00,,,0.00,Wunderground v.1.15,2013-02-01 16:57:00,
2013-02-01 12:02:00,24.1,6.7,30.10,East,85,7.0,12.0,47,0.00,,,0.00,Wunderground v.1.15,2013-02-01 17:02:00,
2013-02-01 12:07:00,24.1,7.7,30.10,ENE,62,8.0,12.0,49,0.00,,,0.00,Wunderground v.1.15,2013-02-01 17:07:00,
2013-02-01 12:12:00,23.9,6.1,30.10,North,0,8.0,10.0,46,0.00,,,0.00,Wunderground v.1.15,2013-02-01 17:12:00,
2013-02-01 12:18:00,24.1,5.3,30.10,East,80,7.0,12.0,44,0.00,,,0.00,Wunderground v.1.15,2013-02-01 17:18:00,
2013-02-01 12:26:00,24.1,5.3,30.10,NE,42,8.0,14.0,44,0.00,,,0.00,Wunderground v.1.15,2013-02-01 17:26:00,
2013-02-01 12:32:00,24.4,7.0,30.11,East,96,6.0,10.0,47,0.00,,,0.00,Wunderground v.1.15,2013-02-01 17:32:00,
2013-02-01 12:38:00,24.8,5.9,30.11,ESE,102,6.0,10.0,44,0.00,,,0.00,Wunderground v.1.15,2013-02-01 17:38:00,
2013-02-01 12:44:00,24.4,6.6,30.12,NE,47,7.0,9.0,46,0.00,,,0.00,Wunderground v.1.15,2013-02-01 17:44:00,
2013-02-01 12:50:00,24.5,6.6,30.12,ENE,59,6.0,12.0,46,0.00,,,0.00,Wunderground v.1.15,2013-02-01 17:50:00,
2013-02-01 12:57:00,24.5,5.2,30.12,ENE,75,7.0,14.0,43,0.00,,,0.00,Wunderground v.1.15,2013-02-01 17:57:00,
2013-02-01 13:04:00,23.9,4.6,30.12,NE,41,6.0,7.0,43,0.00,,,0.00,Wunderground v.1.15,2013-02-01 18:04:00,
2013-02-01 13:10:00,23.8,5.5,30.12,ENE,59,5.0,5.0,45,0.00,,,0.00,Wunderground v.1.15,2013-02-01 18:10:00,
2013-02-01 13:17:00,23.6,6.3,30.12,ENE,59,6.0,7.0,47,0.00,,,0.00,Wunderground v.1.15,2013-02-01 18:17:00,
2013-02-01 13:26:00,23.9,7.9,30.12,NNE,27,5.0,8.0,50,0.00,,,0.00,Wunderground v.1.15,2013-02-01 18:26:00,
2013-02-01 13:32:00,24.5,6.6,30.12,NNW,333,6.0,10.0,46,0.00,,,0.00,Wunderground v.1.15,2013-02-01 18:32:00,
2013-02-01 13:37:00,24.5,6.2,30.12,North,1,6.0,10.0,45,0.00,,,0.00,Wunderground v.1.15,2013-02-01 18:37:00,
2013-02-01 13:45:00,24.4,6.1,30.14,NNW,347,5.0,10.0,45,0.00,,,0.00,Wunderground v.1.15,2013-02-01 18:45:00,
2013-02-01 13:50:00,23.8,4.5,30.14,East,85,6.0,6.0,43,0.00,,,0.00,Wunderground v.1.15,2013-02-01 18:50:00,
2013-02-01 13:56:00,24.2,5.4,30.14,NNE,14,7.0,7.0,44,0.00,,,0.00,Wunderground v.1.15,2013-02-01 18:56:00,
2013-02-01 14:02:00,24.4,4.6,30.14,East,89,6.0,7.0,42,0.00,,,0.00,Wunderground v.1.15,2013-02-01 19:02:00,
2013-02-01 14:07:00,24.1,3.8,30.14,East,88,6.0,7.0,41,0.00,,,0.00,Wunderground v.1.15,2013-02-01 19:07:00,
2013-02-01 14:17:00,23.6,3.3,30.14,ENE,66,6.0,10.0,41,0.00,,,0.00,Wunderground v.1.15,2013-02-01 19:17:00,
2013-02-01 14:25:00,23.3,2.5,30.14,East,82,7.0,8.0,40,0.00,,,0.00,Wunderground v.1.15,2013-02-01 19:25:00,
2013-02-01 14:31:00,23.6,3.8,30.15,ENE,71,5.0,6.0,42,0.00,,,0.00,Wunderground v.1.15,2013-02-01 19:31:00,
2013-02-01 14:36:00,24.2,4.4,30.15,ESE,106,4.0,6.0,42,0.00,,,0.00,Wunderground v.1.15,2013-02-01 19:36:00,
2013-02-01 14:42:00,24.4,4.0,30.15,NE,55,4.0,4.0,41,0.00,,,0.00,Wunderground v.1.15,2013-02-01 19:42:00,
2013-02-01 14:47:00,24.7,4.3,30.15,NE,54,4.0,7.0,41,0.00,,,0.00,Wunderground v.1.15,2013-02-01 19:47:00,
2013-02-01 14:56:00,25.0,3.5,30.15,East,80,5.0,7.0,39,0.00,,,0.00,Wunderground v.1.15,2013-02-01 19:56:00,
2013-02-01 15:02:00,24.8,3.9,30.16,NE,49,4.0,6.0,40,0.00,,,0.00,Wunderground v.1.15,2013-02-01 20:02:00,
2013-02-01 15:07:00,24.2,3.3,30.16,ESE,103,6.0,6.0,40,0.00,,,0.00,Wunderground v.1.15,2013-02-01 20:07:00,
2013-02-01 15:15:00,23.8,3.0,30.17,East,93,5.0,7.0,40,0.00,,,0.00,Wunderground v.1.15,2013-02-01 20:15:00,
2013-02-01 15:21:00,23.5,3.7,30.17,NE,40,5.0,6.0,42,0.00,,,0.00,Wunderground v.1.15,2013-02-01 20:21:00,
2013-02-01 15:27:00,23.2,2.4,30.17,ENE,71,5.0,7.0,40,0.00,,,0.00,Wunderground v.1.15,2013-02-01 20:27:00,
2013-02-01 15:35:00,23.2,3.5,30.17,East,99,4.0,6.0,42,0.00,,,0.00,Wunderground v.1.15,2013-02-01 20:35:00,
2013-02-01 15:40:00,23.0,2.8,30.17,East,97,4.0,4.0,41,0.00,,,0.00,Wunderground v.1.15,2013-02-01 20:40:00,
2013-02-01 15:48:00,23.0,2.8,30.18,ENE,66,4.0,4.0,41,0.00,,,0.00,Wunderground v.1.15,2013-02-01 20:48:00,
2013-02-01 15:55:00,23.5,3.7,30.18,NNW,333,4.0,7.0,42,0.00,,,0.00,Wunderground v.1.15,2013-02-01 20:55:00,
2013-02-01 16:01:00,23.5,2.7,30.19,ENE,64,4.0,5.0,40,0.00,,,0.00,Wunderground v.1.15,2013-02-01 21:01:00,
2013-02-01 16:06:00,23.5,2.7,30.19,ENE,58,5.0,6.0,40,0.00,,,0.00,Wunderground v.1.15,2013-02-01 21:06:00,
2013-02-01 16:12:00,23.6,3.3,30.19,North,7,4.0,4.0,41,0.00,,,0.00,Wunderground v.1.15,2013-02-01 21:12:00,
2013-02-01 16:17:00,23.6,2.8,30.20,ENE,71,3.0,5.0,40,0.00,,,0.00,Wunderground v.1.15,2013-02-01 21:17:00,
2013-02-01 16:22:00,23.5,2.1,30.20,East,100,5.0,6.0,39,0.00,,,0.00,Wunderground v.1.15,2013-02-01 21:22:00,
2013-02-01 16:28:00,23.0,2.8,30.20,North,1,6.0,7.0,41,0.00,,,0.00,Wunderground v.1.15,2013-02-01 21:28:00,
2013-02-01 16:37:00,22.9,3.2,30.21,NW,326,5.0,7.0,42,0.00,,,0.00,Wunderground v.1.15,2013-02-01 21:37:00,
2013-02-01 16:47:00,22.4,2.2,30.21,East,95,4.0,6.0,41,0.00,,,0.00,Wunderground v.1.15,2013-02-01 21:47:00,
2013-02-01 16:52:00,22.1,2.5,30.21,ENE,72,5.0,12.0,42,0.00,,,0.00,Wunderground v.1.15,2013-02-01 21:52:00,
2013-02-01 16:57:00,21.9,2.3,30.21,East,82,5.0,12.0,42,0.00,,,0.00,Wunderground v.1.15,2013-02-01 21:57:00,
2013-02-01 17:04:00,21.8,2.2,30.22,NE,44,4.0,5.0,42,0.00,,,0.00,Wunderground v.1.15,2013-02-01 22:04:00,
2013-02-01 17:10:00,21.4,1.8,30.22,NNE,14,4.0,9.0,42,0.00,,,0.00,Wunderground v.1.15,2013-02-01 22:10:00,
2013-02-01 17:17:00,21.3,1.7,30.22,ENE,73,6.0,9.0,42,0.00,,,0.00,Wunderground v.1.15,2013-02-01 22:17:00,
2013-02-01 17:24:00,21.1,1.6,30.22,ESE,103,5.0,6.0,42,0.00,,,0.00,Wunderground v.1.15,2013-02-01 22:24:00,
2013-02-01 17:30:00,21.0,1.5,30.23,ENE,65,5.0,10.0,42,0.00,,,0.00,Wunderground v.1.15,2013-02-01 22:30:00,
2013-02-01 17:37:00,20.8,1.8,30.23,North,11,6.0,10.0,43,0.00,,,0.00,Wunderground v.1.15,2013-02-01 22:37:00,
2013-02-01 17:42:00,20.8,1.8,30.23,East,79,5.0,6.0,43,0.00,,,0.00,Wunderground v.1.15,2013-02-01 22:42:00,
2013-02-01 17:47:00,20.6,2.6,30.23,ESE,117,5.0,6.0,45,0.00,,,0.00,Wunderground v.1.15,2013-02-01 22:47:00,
2013-02-01 17:56:00,20.5,3.0,30.23,NE,48,4.0,6.0,46,0.00,,,0.00,Wunderground v.1.15,2013-02-01 22:56:00,
2013-02-01 18:02:00,20.5,2.5,30.23,East,90,4.0,7.0,45,0.00,,,0.00,Wunderground v.1.15,2013-02-01 23:02:00,
2013-02-01 18:07:00,20.3,3.2,30.23,ENE,72,4.0,8.0,47,0.00,,,0.00,Wunderground v.1.15,2013-02-01 23:07:00,
2013-02-01 18:17:00,20.2,2.2,30.24,SE,124,5.0,8.0,45,0.00,,,0.00,Wunderground v.1.15,2013-02-01 23:17:00,
2013-02-01 18:25:00,20.0,3.0,30.24,NNW,344,5.0,7.0,47,0.00,,,0.00,Wunderground v.1.15,2013-02-01 23:25:00,
2013-02-01 18:31:00,19.9,2.9,30.26,East,85,3.0,4.0,47,0.00,,,0.00,Wunderground v.1.15,2013-02-01 23:31:00,
2013-02-01 18:36:00,19.9,3.3,30.26,North,353,2.0,4.0,48,0.00,,,0.00,Wunderground v.1.15,2013-02-01 23:36:00,
2013-02-01 18:42:00,19.7,2.7,30.26,East,89,1.0,2.0,47,0.00,,,0.00,Wunderground v.1.15,2013-02-01 23:42:00,
2013-02-01 18:48:00,19.7,2.7,30.26,NE,48,1.0,3.0,47,0.00,,,0.00,Wunderground v.1.15,2013-02-01 23:48:00,
2013-02-01 18:56:00,19.7,2.2,30.26,NNW,344,2.0,7.0,46,0.00,,,0.00,Wunderground v.1.15,2013-02-01 23:56:00,
2013-02-01 19:02:00,19.7,2.2,30.28,NNE,14,2.0,3.0,46,0.00,,,0.00,Wunderground v.1.15,2013-02-02 00:02:00,
2013-02-01 19:08:00,19.5,2.0,30.28,North,350,1.0,3.0,46,0.00,,,0.00,Wunderground v.1.15,2013-02-02 00:08:00,
2013-02-01 19:15:00,19.4,2.4,30.28,North,3,1.0,2.0,47,0.00,,,0.00,Wunderground v.1.15,2013-02-02 00:15:00,
2013-02-01 19:21:00,19.4,2.0,30.28,East,83,1.0,1.0,46,0.00,,,0.00,Wunderground v.1.15,2013-02-02 00:21:00,
2013-02-01 19:26:00,19.2,2.2,30.28,East,79,1.0,1.0,47,0.00,,,0.00,Wunderground v.1.15,2013-02-02 00:26:00,
2013-02-01 19:32:00,19.1,1.7,30.29,NNW,340,0.0,0.0,46,0.00,,,0.00,Wunderground v.1.15,2013-02-02 00:32:00,
2013-02-01 19:38:00,19.1,2.1,30.29,NNW,347,0.0,0.0,47,0.00,,,0.00,Wunderground v.1.15,2013-02-02 00:38:00,
2013-02-01 19:47:00,18.9,2.0,30.29,North,0,2.0,6.0,47,0.00,,,0.00,Wunderground v.1.15,2013-02-02 00:47:00,
2013-02-01 19:56:00,18.9,2.4,30.29,NNE,18,2.0,3.0,48,0.00,,,0.00,Wunderground v.1.15,2013-02-02 00:56:00,
2013-02-01 20:01:00,18.8,2.3,30.28,ENE,64,2.0,5.0,48,0.00,,,0.00,Wunderground v.1.15,2013-02-02 01:01:00,
2013-02-01 20:07:00,18.8,2.8,30.28,NE,52,2.0,5.0,49,0.00,,,0.00,Wunderground v.1.15,2013-02-02 01:07:00,
2013-02-01 20:16:00,18.6,1.7,30.30,North,356,2.0,2.0,47,0.00,,,0.00,Wunderground v.1.15,2013-02-02 01:16:00,
2013-02-01 20:22:00,18.4,1.0,30.30,NNE,23,2.0,4.0,46,0.00,,,0.00,Wunderground v.1.15,2013-02-02 01:22:00,
2013-02-01 20:27:00,18.4,1.5,30.30,East,95,2.0,4.0,47,0.00,,,0.00,Wunderground v.1.15,2013-02-02 01:27:00,
2013-02-01 20:34:00,18.4,1.5,30.30,NNE,28,2.0,3.0,47,0.00,,,0.00,Wunderground v.1.15,2013-02-02 01:34:00,
2013-02-01 20:40:00,18.3,1.4,30.30,NNE,32,2.0,2.0,47,0.00,,,0.00,Wunderground v.1.15,2013-02-02 01:40:00,
2013-02-01 20:45:00,18.1,1.7,30.31,North,354,1.0,5.0,48,0.00,,,0.00,Wunderground v.1.15,2013-02-02 01:45:00,
2013-02-01 20:51:00,18.1,1.7,30.31,North,0,1.0,1.0,48,0.00,,,0.00,Wunderground v.1.15,2013-02-02 01:51:00,
2013-02-01 20:57:00,18.0,1.1,30.31,ESE,121,1.0,1.0,47,0.00,,,0.00,Wunderground v.1.15,2013-02-02 01:57:00,
2013-02-01 21:02:00,18.0,2.0,30.31,ESE,110,1.0,1.0,49,0.00,,,0.00,Wunderground v.1.15,2013-02-02 02:02:00,
2013-02-01 21:08:00,17.8,2.3,30.31,NE,40,1.0,5.0,50,0.00,,,0.00,Wunderground v.1.15,2013-02-02 02:08:00,
2013-02-01 21:16:00,17.5,2.0,30.31,ENE,58,1.0,3.0,50,0.00,,,0.00,Wunderground v.1.15,2013-02-02 02:16:00,
2013-02-01 21:21:00,17.5,2.4,30.31,North,7,1.0,1.0,51,0.00,,,0.00,Wunderground v.1.15,2013-02-02 02:21:00,
2013-02-01 21:27:00,17.3,2.7,30.31,North,353,1.0,2.0,52,0.00,,,0.00,Wunderground v.1.15,2013-02-02 02:27:00,
2013-02-01 21:34:00,17.3,2.2,30.32,North,353,1.0,1.0,51,0.00,,,0.00,Wunderground v.1.15,2013-02-02 02:34:00,
2013-02-01 21:40:00,17.2,2.6,30.32,North,353,0.0,0.0,52,0.00,,,0.00,Wunderground v.1.15,2013-02-02 02:40:00,
2013-02-01 21:46:00,17.0,2.4,30.32,North,353,0.0,0.0,52,0.00,,,0.00,Wunderground v.1.15,2013-02-02 02:46:00,
2013-02-01 21:51:00,16.9,2.7,30.32,North,353,0.0,0.0,53,0.00,,,0.00,Wunderground v.1.15,2013-02-02 02:51:00,
2013-02-01 21:57:00,16.9,3.1,30.32,North,0,0.0,3.0,54,0.00,,,0.00,Wunderground v.1.15,2013-02-02 02:57:00,
2013-02-01 22:04:00,16.7,2.5,30.33,North,0,1.0,2.0,53,0.00,,,0.00,Wunderground v.1.15,2013-02-02 03:04:00,
2013-02-01 22:10:00,16.7,2.5,30.33,NNW,335,1.0,1.0,53,0.00,,,0.00,Wunderground v.1.15,2013-02-02 03:10:00,
2013-02-01 22:16:00,16.7,2.9,30.33,North,6,0.0,1.0,54,0.00,,,0.00,Wunderground v.1.15,2013-02-02 03:16:00,
2013-02-01 22:21:00,16.7,2.9,30.33,NNW,333,0.0,1.0,54,0.00,,,0.00,Wunderground v.1.15,2013-02-02 03:21:00,
2013-02-01 22:27:00,16.9,2.7,30.33,North,354,1.0,4.0,53,0.00,,,0.00,Wunderground v.1.15,2013-02-02 03:27:00,
2013-02-01 22:32:00,16.9,2.3,30.33,North,11,2.0,2.0,52,0.00,,,0.00,Wunderground v.1.15,2013-02-02 03:32:00,
2013-02-01 22:38:00,16.9,2.3,30.33,NE,40,1.0,2.0,52,0.00,,,0.00,Wunderground v.1.15,2013-02-02 03:38:00,
2013-02-01 22:49:00,16.9,2.3,30.33,North,353,1.0,3.0,52,0.00,,,0.00,Wunderground v.1.15,2013-02-02 03:49:00,
2013-02-01 22:58:00,16.7,2.1,30.33,North,354,2.0,3.0,52,0.00,,,0.00,Wunderground v.1.15,2013-02-02 03:58:00,
2013-02-01 23:04:00,16.7,2.1,30.33,North,0,2.0,4.0,52,0.00,,,0.00,Wunderground v.1.15,2013-02-02 04:04:00,
2013-02-01 23:09:00,16.7,2.1,30.33,North,354,2.0,4.0,52,0.00,,,0.00,Wunderground v.1.15,2013-02-02 04:09:00,
2013-02-01 23:14:00,16.7,1.7,30.33,North,352,2.0,5.0,51,0.00,,,0.00,Wunderground v.1.15,2013-02-02 04:14:00,
2013-02-01 23:20:00,16.5,1.9,30.34,NNW,335,3.0,5.0,52,0.00,,,0.00,Wunderground v.1.15,2013-02-02 04:20:00,
2013-02-01 23:25:00,16.5,2.3,30.34,North,352,3.0,5.0,53,0.00,,,0.00,Wunderground v.1.15,2013-02-02 04:25:00,
2013-02-01 23:31:00,16.5,2.7,30.35,North,354,3.0,3.0,54,0.00,,,0.00,Wunderground v.1.15,2013-02-02 04:31:00,
2013-02-01 23:38:00,16.5,2.3,30.35,NNW,346,3.0,6.0,53,0.00,,,0.00,Wunderground v.1.15,2013-02-02 04:38:00,
2013-02-01 23:45:00,16.5,2.3,30.35,NNW,342,5.0,7.0,53,0.00,,,0.00,Wunderground v.1.15,2013-02-02 04:45:00,
2013-02-01 23:51:00,16.5,1.9,30.35,NNW,329,5.0,7.0,52,0.00,,,0.00,Wunderground v.1.15,2013-02-02 04:51:00,
2013-02-01 23:57:00,16.5,1.9,30.35,NNW,339,4.0,7.0,52,0.00,,,0.00,Wunderground v.1.15,2013-02-02 04:57:00,